Time;durP1;ratioP1;P1;durP2;ratioP2;P2;SDS_P1;SDS_P2;PMS_P1;PMS_P2;Temp;Humidity;BMP_temperature;BMP_pressure;BME280_temperature;BME280_humidity;BME280_pressure;Samples;Min_cycle;Max_cycle;Signal;HPM_P1;HPM_P2
2023/07/14 00:01:53;;;;;;;1.60;1.50;;;16.80;79.40;;;;;;5059405;28;20647;-75
2023/07/14 00:04:28;;;;;;;3.13;2.07;;;16.70;81.10;;;;;;5067712;28;21014;-75
2023/07/14 00:06:54;;;;;;;6.90;2.03;;;16.80;80.60;;;;;;5067593;28;20673;-75
2023/07/14 00:09:25;;;;;;;2.00;1.90;;;16.80;79.30;;;;;;5067180;28;20629;-75
2023/07/14 00:11:52;;;;;;;2.33;2.13;;;16.80;79.70;;;;;;5067427;28;20638;-74
2023/07/14 00:14:19;;;;;;;2.10;1.80;;;16.80;80.20;;;;;;5064909;28;21063;-74
2023/07/14 00:16:46;;;;;;;2.30;1.97;;;16.80;80.70;;;;;;5064484;28;20650;-75
2023/07/14 00:19:14;;;;;;;2.30;2.10;;;16.60;80.80;;;;;;5066482;28;20626;-75
2023/07/14 00:21:44;;;;;;;2.50;1.80;;;16.50;81.10;;;;;;5067985;28;20649;-76
2023/07/14 00:24:13;;;;;;;2.90;2.00;;;16.40;82.50;;;;;;5067585;28;21012;-75
2023/07/14 00:26:41;;;;;;;2.43;2.00;;;16.40;81.90;;;;;;5067446;28;20662;-75
2023/07/14 00:29:28;;;;;;;2.23;2.03;;;16.50;81.70;;;;;;5067028;28;20967;-74
2023/07/14 00:31:56;;;;;;;2.57;2.20;;;16.50;82.90;;;;;;5067342;28;20854;-74
2023/07/14 00:34:24;;;;;;;2.53;2.17;;;16.50;83.00;;;;;;5058984;28;20626;-74
2023/07/14 00:36:52;;;;;;;3.50;1.90;;;16.50;82.70;;;;;;5067491;28;20665;-75
2023/07/14 00:39:19;;;;;;;1.83;1.60;;;16.50;83.10;;;;;;5067025;28;20622;-75
2023/07/14 00:41:46;;;;;;;1.97;1.77;;;16.50;82.80;;;;;;5067197;28;20651;-75
2023/07/14 00:44:14;;;;;;;6.40;2.57;;;16.50;82.50;;;;;;5066830;28;21181;-75
2023/07/14 00:46:41;;;;;;;3.90;2.30;;;16.50;82.50;;;;;;5067141;28;20662;-75
2023/07/14 00:49:29;;;;;;;2.53;2.40;;;16.50;82.50;;;;;;5059236;28;21223;-75
2023/07/14 00:51:58;;;;;;;3.00;2.03;;;16.40;83.50;;;;;;5060943;28;20645;-75
2023/07/14 00:54:28;;;;;;;3.13;2.10;;;16.50;83.10;;;;;;5066910;28;20617;-75
2023/07/14 00:56:56;;;;;;;1.50;1.40;;;16.40;82.20;;;;;;5067383;28;20737;-75
2023/07/14 00:59:34;;;;;;;2.20;2.10;;;16.50;82.10;;;;;;5066865;28;20756;-75
2023/07/14 01:02:19;;;;;;;2.73;1.70;;;16.40;83.50;;;;;;5059732;28;21206;-75
2023/07/14 01:04:48;;;;;;;2.53;2.33;;;16.40;83.00;;;;;;5070391;28;20632;-75
2023/07/14 01:07:18;;;;;;;1.83;1.73;;;16.40;84.70;;;;;;5070704;28;20785;-75
2023/07/14 01:09:47;;;;;;;1.73;1.63;;;16.30;85.20;;;;;;5070242;28;20624;-75
2023/07/14 01:12:20;;;;;;;2.57;1.73;;;16.30;85.60;;;;;;5070760;28;20742;-75
2023/07/14 01:14:50;;;;;;;3.43;2.03;;;16.40;85.20;;;;;;5070678;28;20601;-75
2023/07/14 01:17:19;;;;;;;2.27;1.97;;;16.40;84.90;;;;;;5070247;28;20645;-75
2023/07/14 01:19:51;;;;;;;2.20;1.87;;;16.30;85.20;;;;;;5070181;28;20649;-75
2023/07/14 01:22:26;;;;;;;7.43;2.43;;;16.30;84.90;;;;;;5070724;28;20702;-75
2023/07/14 01:25:01;;;;;;;2.27;1.90;;;16.30;85.50;;;;;;5070872;28;20732;-75
2023/07/14 01:27:31;;;;;;;2.33;2.13;;;16.30;86.30;;;;;;5070061;28;20656;-75
2023/07/14 01:29:59;;;;;;;1.93;1.83;;;16.20;86.60;;;;;;5069203;28;20621;-75
2023/07/14 01:32:36;;;;;;;2.53;2.33;;;16.20;86.80;;;;;;5069998;28;20656;-75
2023/07/14 01:35:05;;;;;;;3.83;2.60;;;16.10;86.20;;;;;;5070371;28;20621;-75
2023/07/14 01:37:35;;;;;;;3.70;2.40;;;16.20;86.80;;;;;;5070456;28;21072;-75
2023/07/14 01:40:05;;;;;;;1.90;1.80;;;16.10;86.60;;;;;;5069830;28;20628;-75
2023/07/14 01:42:35;;;;;;;1.93;1.83;;;16.10;86.60;;;;;;5061872;28;20636;-75
2023/07/14 01:45:02;;;;;;;3.37;2.03;;;16.10;87.60;;;;;;5070190;28;20703;-75
2023/07/14 01:47:30;;;;;;;2.20;2.00;;;16.10;87.50;;;;;;5070127;28;20661;-75
2023/07/14 01:50:01;;;;;;;5.10;2.43;;;16.10;87.80;;;;;;5061684;28;20621;-75
2023/07/14 01:52:32;;;;;;;7.67;2.00;;;16.00;87.40;;;;;;5070050;28;20699;-75
2023/07/14 01:55:04;;;;;;;1.93;1.83;;;16.10;87.10;;;;;;5069666;28;21281;-75
2023/07/14 01:57:37;;;;;;;1.80;1.70;;;16.00;87.20;;;;;;5070062;28;20671;-74
2023/07/14 02:00:10;;;;;;;4.90;2.97;;;16.00;87.40;;;;;;5069291;28;20729;-74
2023/07/14 02:02:40;;;;;;;2.33;2.13;;;16.00;88.80;;;;;;5070049;28;20633;-75
2023/07/14 02:05:26;;;;;;;2.70;2.03;;;16.00;89.20;;;;;;5069585;28;20711;-75
2023/07/14 02:07:57;;;;;;;2.77;2.20;;;15.90;89.20;;;;;;5070171;28;20649;-74
2023/07/14 02:10:25;;;;;;;1.87;1.77;;;15.90;88.00;;;;;;5069447;28;21216;-74
2023/07/14 02:12:56;;;;;;;2.97;1.93;;;15.90;88.10;;;;;;5069307;28;20642;-74
2023/07/14 02:15:29;;;;;;;2.50;1.93;;;15.90;88.00;;;;;;5063767;28;20637;-75
2023/07/14 02:17:56;;;;;;;4.10;2.27;;;15.90;89.80;;;;;;5069679;28;20620;-75
2023/07/14 02:20:27;;;;;;;2.60;1.77;;;15.90;90.20;;;;;;5068760;28;21068;-74
2023/07/14 02:22:55;;;;;;;2.10;2.00;;;15.70;90.20;;;;;;5069619;28;20628;-74
2023/07/14 02:25:26;;;;;;;3.57;2.30;;;15.70;89.90;;;;;;5069364;28;20633;-74
2023/07/14 02:27:55;;;;;;;2.60;2.13;;;15.70;90.20;;;;;;5069192;28;20646;-75
2023/07/14 02:30:26;;;;;;;3.47;2.10;;;15.80;90.20;;;;;;5067993;28;21264;-74
2023/07/14 02:32:57;;;;;;;2.93;2.73;;;15.70;90.20;;;;;;5069435;28;20720;-75
2023/07/14 02:35:33;;;;;;;1.90;1.80;;;15.50;90.40;;;;;;5061198;28;20645;-75
2023/07/14 02:38:03;;;;;;;2.10;2.00;;;15.30;90.30;;;;;;5069447;28;20655;-75
2023/07/14 02:40:35;;;;;;;2.43;2.23;;;15.50;90.10;;;;;;5061000;28;20640;-74
2023/07/14 02:43:09;;;;;;;2.90;2.60;;;15.50;90.00;;;;;;5068804;28;20630;-74
2023/07/14 02:45:42;;;;;;;2.07;1.97;;;15.50;90.00;;;;;;5060998;28;20652;-75
2023/07/14 02:48:15;;;;;;;2.03;1.93;;;15.50;89.20;;;;;;5068789;28;20645;-74
2023/07/14 02:50:41;;;;;;;3.10;1.90;;;15.60;88.50;;;;;;5068106;28;20642;-74
2023/07/14 02:53:10;;;;;;;4.33;2.50;;;15.60;89.40;;;;;;5068520;28;20724;-74
2023/07/14 02:55:37;;;;;;;2.20;1.93;;;15.60;88.40;;;;;;5068871;28;20733;-75
2023/07/14 02:58:05;;;;;;;2.07;1.97;;;15.60;88.90;;;;;;5068561;28;20618;-74
2023/07/14 03:00:35;;;;;;;1.80;1.70;;;15.60;90.30;;;;;;5067933;28;20642;-74
2023/07/14 03:03:05;;;;;;;1.53;1.43;;;15.60;88.90;;;;;;5067121;28;20714;-75
2023/07/14 03:05:33;;;;;;;2.00;1.80;;;15.70;89.20;;;;;;5068854;28;20646;-74
2023/07/14 03:08:01;;;;;;;2.63;2.03;;;15.70;88.80;;;;;;5067999;28;20725;-74
2023/07/14 03:10:28;;;;;;;2.60;2.40;;;15.70;90.10;;;;;;5068123;28;21320;-74
2023/07/14 03:12:56;;;;;;;2.00;1.90;;;15.70;89.20;;;;;;5068226;28;20630;-74
2023/07/14 03:15:24;;;;;;;2.30;2.10;;;15.70;89.20;;;;;;5068436;28;20632;-74
2023/07/14 03:17:53;;;;;;;3.17;1.90;;;15.70;87.50;;;;;;5068128;28;20625;-74
2023/07/14 03:20:22;;;;;;;2.03;1.90;;;15.80;86.40;;;;;;5067215;28;20626;-74
2023/07/14 03:22:49;;;;;;;2.07;1.90;;;15.90;87.20;;;;;;5068355;28;20629;-75
2023/07/14 03:25:17;;;;;;;2.00;1.70;;;15.80;87.40;;;;;;5067533;28;20675;-74
2023/07/14 03:27:46;;;;;;;3.47;1.83;;;15.70;87.50;;;;;;5068464;28;21001;-74
2023/07/14 03:30:14;;;;;;;2.20;2.00;;;15.80;88.30;;;;;;5067349;28;21229;-74
2023/07/14 03:32:42;;;;;;;2.17;2.07;;;15.70;89.00;;;;;;5067772;28;20610;-75
2023/07/14 03:35:11;;;;;;;2.50;2.30;;;15.60;88.20;;;;;;5067867;28;21022;-74
2023/07/14 03:37:38;;;;;;;1.87;1.77;;;15.70;89.30;;;;;;5068425;28;20632;-75
2023/07/14 03:40:06;;;;;;;2.97;1.90;;;15.60;90.20;;;;;;5067524;28;20621;-74
2023/07/14 03:42:34;;;;;;;3.53;2.50;;;15.50;90.20;;;;;;5068033;28;20614;-74
2023/07/14 03:45:01;;;;;;;2.33;2.10;;;15.40;90.30;;;;;;5067854;28;20632;-74
2023/07/14 03:47:27;;;;;;;3.13;2.10;;;15.50;90.60;;;;;;5060445;28;20770;-74
2023/07/14 03:49:54;;;;;;;1.70;1.60;;;15.50;90.90;;;;;;5061666;28;21271;-74
2023/07/14 03:52:22;;;;;;;1.83;1.73;;;15.40;90.60;;;;;;5067839;28;20637;-74
2023/07/14 03:54:49;;;;;;;2.00;1.80;;;15.30;90.90;;;;;;5067971;28;20621;-74
2023/07/14 03:57:16;;;;;;;1.70;1.60;;;15.30;91.10;;;;;;5068044;28;20638;-75
2023/07/14 03:59:43;;;;;;;2.23;2.03;;;15.30;91.20;;;;;;5067058;28;20992;-74
2023/07/14 04:02:10;;;;;;;2.67;2.47;;;15.30;91.40;;;;;;5067320;28;20681;-75
2023/07/14 04:04:37;;;;;;;2.67;2.40;;;15.30;91.50;;;;;;5067921;28;20622;-74
2023/07/14 04:07:04;;;;;;;3.30;2.20;;;15.30;91.50;;;;;;5067241;28;20752;-74
2023/07/14 04:09:32;;;;;;;1.93;1.70;;;15.30;91.10;;;;;;5067125;28;20629;-75
2023/07/14 04:11:59;;;;;;;2.20;2.00;;;15.40;91.50;;;;;;5059240;28;20646;-75
2023/07/14 04:14:26;;;;;;;2.17;1.97;;;15.50;91.90;;;;;;5064157;28;20622;-74
2023/07/14 04:16:52;;;;;;;3.03;1.90;;;15.70;90.60;;;;;;5066181;28;20684;-74
2023/07/14 04:19:19;;;;;;;3.63;2.90;;;15.80;90.40;;;;;;5066844;28;20606;-74
2023/07/14 04:21:47;;;;;;;2.80;2.10;;;15.90;91.20;;;;;;5067339;28;20657;-74
2023/07/14 04:24:13;;;;;;;1.97;1.87;;;15.90;91.10;;;;;;5067538;28;20665;-74
2023/07/14 04:26:41;;;;;;;2.53;2.27;;;16.00;91.60;;;;;;5067521;28;20660;-74
2023/07/14 04:29:11;;;;;;;2.10;2.00;;;16.00;91.10;;;;;;5066147;28;20654;-74
2023/07/14 04:31:38;;;;;;;2.80;2.40;;;16.10;91.30;;;;;;5067595;28;21007;-74
2023/07/14 04:34:05;;;;;;;4.63;2.20;;;16.20;90.90;;;;;;5067303;28;20740;-75
2023/07/14 04:36:32;;;;;;;3.20;2.20;;;16.30;89.90;;;;;;5068629;28;20680;-73
2023/07/14 04:39:04;;;;;;;2.83;2.07;;;16.40;87.90;;;;;;5070794;28;20625;-72
2023/07/14 04:41:32;;;;;;;3.00;2.20;;;16.50;86.20;;;;;;5063327;28;20637;-72
2023/07/14 04:44:03;;;;;;;3.23;2.60;;;16.50;85.30;;;;;;5071437;28;20630;-72
2023/07/14 04:46:29;;;;;;;2.50;2.30;;;16.60;84.40;;;;;;5070881;28;20989;-72
2023/07/14 04:48:56;;;;;;;2.27;2.07;;;16.70;84.10;;;;;;5070548;28;20653;-72
2023/07/14 04:51:23;;;;;;;3.10;2.57;;;16.70;84.30;;;;;;5071069;28;20645;-72
2023/07/14 04:53:50;;;;;;;2.63;2.30;;;16.80;85.20;;;;;;5071091;28;20869;-73
2023/07/14 04:56:17;;;;;;;3.90;2.07;;;16.80;85.10;;;;;;5070782;28;20322;-73
2023/07/14 04:58:43;;;;;;;4.57;2.67;;;16.90;85.50;;;;;;5070477;28;20628;-71
2023/07/14 05:01:12;;;;;;;2.20;1.90;;;17.00;85.70;;;;;;5070866;28;21241;-72
2023/07/14 05:03:38;;;;;;;3.43;2.20;;;17.00;85.20;;;;;;5070826;28;20632;-71
2023/07/14 05:06:05;;;;;;;1.83;1.73;;;17.10;85.50;;;;;;5071120;28;20648;-71
2023/07/14 05:08:32;;;;;;;3.37;2.13;;;17.10;84.40;;;;;;5066715;28;20670;-71
2023/07/14 05:10:59;;;;;;;2.70;2.30;;;17.20;84.40;;;;;;5061778;28;21311;-71
2023/07/14 05:13:26;;;;;;;3.77;2.60;;;17.20;85.00;;;;;;5065269;28;20728;-71
2023/07/14 05:15:53;;;;;;;2.97;2.70;;;17.20;85.50;;;;;;5063309;28;20648;-72
2023/07/14 05:18:24;;;;;;;6.30;2.33;;;17.20;85.10;;;;;;5060903;28;20627;-72
2023/07/14 05:20:51;;;;;;;2.40;2.20;;;17.30;84.50;;;;;;5055907;28;20673;-71
2023/07/14 05:23:18;;;;;;;1.87;1.77;;;17.40;83.90;;;;;;5064350;28;21186;-71
2023/07/14 05:25:46;;;;;;;3.73;2.50;;;17.40;83.10;;;;;;5061876;28;20643;-71
2023/07/14 05:28:16;;;;;;;3.27;1.97;;;17.50;83.50;;;;;;5060553;28;20653;-72
2023/07/14 05:30:43;;;;;;;3.10;2.10;;;17.60;82.80;;;;;;5060783;28;20754;-72
2023/07/14 05:33:12;;;;;;;3.00;2.57;;;17.60;83.30;;;;;;5064407;28;20631;-72
2023/07/14 05:35:42;;;;;;;2.50;2.30;;;17.70;84.10;;;;;;5061626;28;20752;-72
2023/07/14 05:38:09;;;;;;;4.40;2.30;;;17.70;83.90;;;;;;5062631;28;20632;-72
2023/07/14 05:40:36;;;;;;;3.27;2.20;;;17.80;84.60;;;;;;5061619;28;20940;-71
2023/07/14 05:43:03;;;;;;;3.53;2.10;;;17.80;83.10;;;;;;5063361;28;21213;-71
2023/07/14 05:45:30;;;;;;;3.83;2.60;;;17.80;82.40;;;;;;5062237;28;20638;-73
2023/07/14 05:47:57;;;;;;;3.60;2.50;;;17.90;82.70;;;;;;5061382;28;20657;-72
2023/07/14 05:50:23;;;;;;;2.40;2.20;;;17.90;83.30;;;;;;5061069;28;20648;-73
2023/07/14 05:52:53;;;;;;;2.63;2.43;;;18.00;83.00;;;;;;5055289;28;20625;-72
2023/07/14 05:55:20;;;;;;;2.90;2.20;;;18.30;83.60;;;;;;5059036;28;20291;-73
2023/07/14 05:57:46;;;;;;;4.83;2.80;;;18.40;82.20;;;;;;5058555;28;20629;-73
2023/07/14 06:00:16;;;;;;;6.33;2.87;;;18.40;81.90;;;;;;5059645;28;20626;-72
2023/07/14 06:02:46;;;;;;;3.17;2.77;;;18.40;81.90;;;;;;5062896;28;20636;-72
2023/07/14 06:05:14;;;;;;;8.00;2.47;;;18.50;82.00;;;;;;5063520;28;20625;-73
2023/07/14 06:07:41;;;;;;;2.97;2.67;;;18.50;82.90;;;;;;5069330;28;20638;-73
2023/07/14 06:10:12;;;;;;;8.10;2.93;;;18.60;82.70;;;;;;5065981;28;20630;-73
2023/07/14 06:12:39;;;;;;;4.90;3.00;;;18.70;82.00;;;;;;5069407;28;20992;-73
2023/07/14 06:15:07;;;;;;;2.43;2.00;;;18.60;82.40;;;;;;5064158;28;20633;-73
2023/07/14 06:17:34;;;;;;;2.50;2.30;;;18.50;81.20;;;;;;5069302;28;21082;-73
2023/07/14 06:20:01;;;;;;;2.33;2.00;;;18.50;79.20;;;;;;5068149;28;20988;-73
2023/07/14 06:22:27;;;;;;;2.20;1.80;;;18.50;78.70;;;;;;5069320;28;21099;-73
2023/07/14 06:24:55;;;;;;;4.70;2.53;;;18.60;78.60;;;;;;5069527;28;20740;-73
2023/07/14 06:27:24;;;;;;;2.03;1.80;;;18.60;79.80;;;;;;5064350;28;20667;-73
2023/07/14 06:29:50;;;;;;;4.43;2.40;;;18.70;79.80;;;;;;5068094;28;20685;-73
2023/07/14 06:32:17;;;;;;;4.80;2.63;;;18.70;78.70;;;;;;5068664;28;20649;-73
2023/07/14 06:34:44;;;;;;;2.50;2.30;;;18.80;78.10;;;;;;5061260;28;20621;-73
2023/07/14 06:37:11;;;;;;;2.40;2.20;;;19.00;77.30;;;;;;5065017;28;21108;-73
2023/07/14 06:39:38;;;;;;;1.83;1.63;;;19.10;76.10;;;;;;5066129;28;20630;-73
2023/07/14 06:42:05;;;;;;;4.50;3.17;;;19.20;76.20;;;;;;5065403;28;20641;-73
2023/07/14 06:44:35;;;;;;;2.30;2.10;;;19.30;75.70;;;;;;5057666;28;20629;-73
2023/07/14 06:47:01;;;;;;;9.13;2.00;;;19.50;73.30;;;;;;5065903;28;20650;-73
2023/07/14 06:49:28;;;;;;;4.20;1.97;;;19.50;73.70;;;;;;5057659;28;20659;-73
2023/07/14 06:51:55;;;;;;;2.00;1.80;;;19.60;72.40;;;;;;5065297;28;20645;-73
2023/07/14 06:54:22;;;;;;;2.10;1.90;;;19.80;72.00;;;;;;5060541;28;21008;-73
2023/07/14 06:56:49;;;;;;;2.00;1.80;;;19.90;72.40;;;;;;5061530;28;20642;-73
2023/07/14 06:59:15;;;;;;;2.63;1.87;;;20.00;70.90;;;;;;5059562;28;20630;-73
2023/07/14 07:01:43;;;;;;;4.10;2.10;;;20.10;70.90;;;;;;5055183;28;20649;-73
2023/07/14 07:04:10;;;;;;;2.40;2.20;;;20.20;71.70;;;;;;5057576;28;20629;-71
2023/07/14 07:06:37;;;;;;;1.67;1.57;;;20.30;72.30;;;;;;5062292;28;20657;-73
2023/07/14 07:09:04;;;;;;;1.57;1.47;;;20.40;70.80;;;;;;5067027;28;21257;-74
2023/07/14 07:11:32;;;;;;;2.17;1.97;;;20.50;71.40;;;;;;5063502;28;20685;-72
2023/07/14 07:13:59;;;;;;;2.07;1.63;;;20.70;70.20;;;;;;5067513;28;20633;-72
2023/07/14 07:16:25;;;;;;;2.30;2.10;;;20.70;70.80;;;;;;5064078;28;20695;-72
2023/07/14 07:18:55;;;;;;;1.60;1.50;;;20.80;70.00;;;;;;5066175;28;20649;-72
2023/07/14 07:21:21;;;;;;;2.07;1.80;;;20.90;70.10;;;;;;5066437;28;20699;-72
2023/07/14 07:23:48;;;;;;;1.77;1.67;;;20.90;69.00;;;;;;5067695;28;20983;-72
2023/07/14 07:26:15;;;;;;;2.93;1.73;;;20.90;68.00;;;;;;5064862;28;20645;-72
2023/07/14 07:28:42;;;;;;;1.93;1.83;;;21.00;68.00;;;;;;5061880;28;20663;-72
2023/07/14 07:31:11;;;;;;;2.80;2.53;;;21.10;68.20;;;;;;5061679;28;20749;-72
2023/07/14 07:33:38;;;;;;;3.23;2.00;;;21.30;66.50;;;;;;5065386;28;21198;-72
2023/07/14 07:36:14;;;;;;;1.77;1.67;;;21.40;64.10;;;;;;5065263;28;20653;-72
2023/07/14 07:38:46;;;;;;;1.53;1.43;;;21.60;63.60;;;;;;5064150;28;21417;-72
2023/07/14 07:41:14;;;;;;;1.50;1.27;;;21.50;63.90;;;;;;5067187;28;20658;-72
2023/07/14 07:43:41;;;;;;;1.70;1.60;;;21.60;64.00;;;;;;5065870;28;20969;-73
2023/07/14 07:46:08;;;;;;;8.33;1.80;;;21.70;64.80;;;;;;5067088;28;20749;-72
2023/07/14 07:48:36;;;;;;;1.53;1.43;;;21.90;64.30;;;;;;5063775;28;20796;-72
2023/07/14 07:51:05;;;;;;;2.57;2.37;;;22.00;61.30;;;;;;5062224;28;20672;-72
2023/07/14 07:53:33;;;;;;;3.37;1.60;;;22.10;61.10;;;;;;5058543;28;20639;-72
2023/07/14 07:56:01;;;;;;;4.07;2.00;;;22.20;60.70;;;;;;5066546;28;20746;-73
2023/07/14 07:58:28;;;;;;;4.50;1.70;;;22.30;62.10;;;;;;5060974;28;21158;-72
2023/07/14 08:00:55;;;;;;;2.83;1.97;;;22.50;61.70;;;;;;5064599;28;20644;-72
2023/07/14 08:03:22;;;;;;;5.93;1.80;;;22.60;58.70;;;;;;5062870;28;20638;-72
2023/07/14 08:05:49;;;;;;;1.70;1.60;;;22.70;59.40;;;;;;5060521;28;20662;-72
2023/07/14 08:08:18;;;;;;;1.17;1.10;;;22.70;59.30;;;;;;5063441;28;21052;-72
2023/07/14 08:10:46;;;;;;;3.67;1.60;;;22.70;59.00;;;;;;5065276;28;20683;-72
2023/07/14 08:13:14;;;;;;;1.67;1.47;;;22.80;58.80;;;;;;5052395;28;20644;-72
2023/07/14 08:15:41;;;;;;;1.60;1.30;;;23.00;59.30;;;;;;5066719;28;20673;-72
2023/07/14 08:18:08;;;;;;;1.93;1.73;;;23.00;57.90;;;;;;5055338;28;20643;-72
2023/07/14 08:20:37;;;;;;;2.10;1.97;;;23.10;58.80;;;;;;5058296;28;20642;-72
2023/07/14 08:23:04;;;;;;;1.70;1.60;;;23.20;58.60;;;;;;5065504;28;20626;-72
2023/07/14 08:25:33;;;;;;;2.73;1.80;;;23.40;57.70;;;;;;5062032;28;20863;-72
2023/07/14 08:27:59;;;;;;;1.77;1.67;;;23.50;57.40;;;;;;5064563;28;20623;-73
2023/07/14 08:30:26;;;;;;;4.40;2.17;;;23.70;57.60;;;;;;5065889;28;20665;-72
2023/07/14 08:32:53;;;;;;;4.87;3.00;;;23.80;56.50;;;;;;5066450;28;20647;-72
2023/07/14 08:35:21;;;;;;;1.63;1.53;;;23.90;56.00;;;;;;5065859;28;20627;-71
2023/07/14 08:37:47;;;;;;;5.03;1.60;;;23.90;56.10;;;;;;5065247;28;20642;-72
2023/07/14 08:40:18;;;;;;;2.43;1.90;;;23.90;57.10;;;;;;5059363;28;20639;-71
2023/07/14 08:42:52;;;;;;;1.50;1.40;;;24.00;56.80;;;;;;5065251;28;21199;-71
2023/07/14 08:45:37;;;;;;;4.70;1.50;;;24.00;56.90;;;;;;5064147;28;20622;-71
2023/07/14 08:48:13;;;;;;;1.93;1.83;;;24.00;55.70;;;;;;5065250;28;21224;-71
2023/07/14 08:50:41;;;;;;;1.63;1.53;;;24.10;55.50;;;;;;5063629;28;20672;-71
2023/07/14 08:53:24;;;;;;;2.30;2.00;;;24.10;55.90;;;;;;5064396;28;20726;-71
2023/07/14 08:55:53;;;;;;;1.53;1.43;;;24.30;55.80;;;;;;5060037;28;21246;-72
2023/07/14 08:58:24;;;;;;;1.63;1.53;;;24.30;55.60;;;;;;5064436;28;21244;-72
2023/07/14 09:01:05;;;;;;;3.83;1.90;;;24.40;55.80;;;;;;5057541;28;20679;-72
2023/07/14 09:03:42;;;;;;;2.53;1.57;;;24.60;55.20;;;;;;5059536;28;20632;-72
2023/07/14 09:06:18;;;;;;;1.70;1.57;;;24.70;55.00;;;;;;5064945;28;20651;-72
2023/07/14 09:08:46;;;;;;;2.17;1.97;;;24.80;54.80;;;;;;5063445;28;20632;-72
2023/07/14 09:11:28;;;;;;;2.70;2.50;;;24.80;55.20;;;;;;5065170;28;20656;-72
2023/07/14 09:14:05;;;;;;;6.40;1.80;;;24.70;54.20;;;;;;5065742;28;20639;-72
2023/07/14 09:16:39;;;;;;;2.07;1.90;;;24.70;54.90;;;;;;5061360;28;20627;-72
2023/07/14 09:19:14;;;;;;;1.83;1.73;;;24.60;55.50;;;;;;5050566;28;20702;-72
2023/07/14 09:21:49;;;;;;;5.30;1.63;;;24.60;55.40;;;;;;5063207;28;20647;-72
2023/07/14 09:24:26;;;;;;;1.90;1.53;;;24.70;54.90;;;;;;5060641;28;21187;-72
2023/07/14 09:26:56;;;;;;;1.53;1.43;;;24.70;56.40;;;;;;5062667;28;20662;-71
2023/07/14 09:29:41;;;;;;;2.50;1.63;;;24.70;55.90;;;;;;5062513;28;20666;-72
2023/07/14 09:32:24;;;;;;;2.67;1.60;;;24.80;54.80;;;;;;5067451;28;20651;-71
2023/07/14 09:34:57;;;;;;;4.67;2.10;;;24.90;54.60;;;;;;5063699;28;20735;-71
2023/07/14 09:37:28;;;;;;;2.00;1.90;;;25.00;54.10;;;;;;5058127;28;20648;-71
2023/07/14 09:40:04;;;;;;;2.03;1.90;;;25.00;54.10;;;;;;5068483;28;20629;-71
2023/07/14 09:42:40;;;;;;;1.83;1.73;;;25.10;53.80;;;;;;5062469;28;20614;-72
2023/07/14 09:45:17;;;;;;;2.20;2.10;;;25.10;54.70;;;;;;5060387;28;21271;-72
2023/07/14 09:47:46;;;;;;;2.23;1.87;;;25.20;54.60;;;;;;5062827;28;20615;-72
2023/07/14 09:50:16;;;;;;;2.87;1.57;;;24.90;54.90;;;;;;5067923;28;20679;-72
2023/07/14 09:52:52;;;;;;;1.93;1.77;;;24.80;55.60;;;;;;5060424;28;20629;-72
2023/07/14 09:55:20;;;;;;;1.80;1.70;;;24.90;55.60;;;;;;5065468;28;20655;-72
2023/07/14 09:57:50;;;;;;;3.70;1.63;;;25.00;55.30;;;;;;5060916;28;20624;-72
2023/07/14 10:00:22;;;;;;;6.83;1.90;;;25.10;55.50;;;;;;5063396;28;20988;-72
2023/07/14 10:03:02;;;;;;;5.23;2.10;;;25.10;55.20;;;;;;5069327;28;21479;-72
2023/07/14 10:05:40;;;;;;;1.67;1.57;;;25.20;56.00;;;;;;5065124;28;21232;-72
2023/07/14 10:08:22;;;;;;;1.73;1.63;;;25.20;54.10;;;;;;5062383;28;20641;-71
2023/07/14 10:10:49;;;;;;;1.90;1.80;;;25.10;53.70;;;;;;5064062;28;21421;-71
2023/07/14 10:13:19;;;;;;;3.10;1.88;;;25.10;53.70;;;;;;5063716;28;20747;-72
2023/07/14 10:15:54;;;;;;;2.40;1.70;;;25.20;53.30;;;;;;5064345;28;20246;-72
2023/07/14 10:18:22;;;;;;;3.50;1.87;;;25.10;53.50;;;;;;5069767;28;20635;-71
2023/07/14 10:21:01;;;;;;;2.30;1.90;;;25.10;53.60;;;;;;5068014;28;20746;-71
2023/07/14 10:23:28;;;;;;;1.87;1.60;;;25.00;55.60;;;;;;5065824;28;21185;-72
2023/07/14 10:25:55;;;;;;;2.30;2.10;;;25.10;57.00;;;;;;5063292;28;20679;-71
2023/07/14 10:28:27;;;;;;;2.20;2.00;;;25.10;55.20;;;;;;5069547;28;20724;-71
2023/07/14 10:31:06;;;;;;;1.90;1.80;;;25.00;53.60;;;;;;5068839;28;20680;-71
2023/07/14 10:33:46;;;;;;;3.33;2.60;;;24.90;54.90;;;;;;5061190;28;21209;-71
2023/07/14 10:36:19;;;;;;;2.63;2.07;;;25.10;54.00;;;;;;5065151;28;20652;-71
2023/07/14 10:38:53;;;;;;;1.80;1.60;;;25.30;54.20;;;;;;5056516;28;20701;-72
2023/07/14 10:41:21;;;;;;;1.98;1.80;;;25.40;54.00;;;;;;5065148;28;21096;-71
2023/07/14 10:43:52;;;;;;;5.83;1.57;;;25.50;53.40;;;;;;5068239;28;20557;-71
2023/07/14 10:46:24;;;;;;;1.90;1.80;;;25.70;53.10;;;;;;5062327;28;20669;-71
2023/07/14 10:48:55;;;;;;;2.10;1.70;;;25.80;52.40;;;;;;5064291;28;21150;-71
2023/07/14 10:51:42;;;;;;;1.83;1.70;;;25.90;52.50;;;;;;5061197;28;20716;-71
2023/07/14 10:54:13;;;;;;;1.87;1.77;;;26.00;52.30;;;;;;5068977;28;20625;-72
2023/07/14 10:56:45;;;;;;;1.60;1.50;;;26.10;52.40;;;;;;5068148;28;20645;-72
2023/07/14 10:59:16;;;;;;;1.67;1.53;;;25.90;52.10;;;;;;5068390;28;20632;-72
2023/07/14 11:01:57;;;;;;;1.60;1.50;;;25.90;51.70;;;;;;5059684;28;20655;-71
2023/07/14 11:04:30;;;;;;;1.83;1.73;;;25.80;52.40;;;;;;5069074;28;21069;-71
2023/07/14 11:06:57;;;;;;;1.77;1.67;;;25.80;51.80;;;;;;5060614;28;20760;-71
2023/07/14 11:09:25;;;;;;;1.80;1.70;;;25.80;51.60;;;;;;5067927;28;20625;-71
2023/07/14 11:12:03;;;;;;;1.53;1.27;;;25.70;51.60;;;;;;5068490;28;20640;-71
2023/07/14 11:14:40;;;;;;;2.00;1.83;;;25.80;51.30;;;;;;5068420;28;20643;-71
2023/07/14 11:17:23;;;;;;;2.30;1.60;;;25.70;51.60;;;;;;5060637;28;20659;-71
2023/07/14 11:20:03;;;;;;;2.10;1.63;;;25.70;50.60;;;;;;5068158;28;20628;-71
2023/07/14 11:22:52;;;;;;;1.60;1.50;;;25.70;51.20;;;;;;5068360;28;20632;-71
2023/07/14 11:25:21;;;;;;;3.23;2.03;;;25.70;50.60;;;;;;5061058;28;21197;-71
2023/07/14 11:27:58;;;;;;;3.63;1.80;;;25.70;50.60;;;;;;5068020;28;21189;-72
2023/07/14 11:30:29;;;;;;;1.60;1.50;;;25.80;52.50;;;;;;5060550;28;20678;-71
2023/07/14 11:33:16;;;;;;;1.90;1.80;;;26.00;51.40;;;;;;5068146;28;20622;-71
2023/07/14 11:35:52;;;;;;;1.90;1.80;;;26.10;50.50;;;;;;5062889;28;20652;-71
2023/07/14 11:38:35;;;;;;;2.90;2.23;;;26.30;51.10;;;;;;5067444;28;21216;-71
2023/07/14 11:41:02;;;;;;;3.10;2.10;;;26.80;50.90;;;;;;5067485;28;20648;-72
2023/07/14 11:43:31;;;;;;;1.83;1.63;;;26.90;50.00;;;;;;5068172;28;20721;-71
2023/07/14 11:46:02;;;;;;;2.10;2.00;;;26.90;49.50;;;;;;5067672;28;20660;-72
2023/07/14 11:48:37;;;;;;;4.27;1.70;;;26.80;50.90;;;;;;5066030;28;20629;-71
2023/07/14 11:51:08;;;;;;;2.27;2.13;;;26.80;49.10;;;;;;5062984;28;20668;-71
2023/07/14 11:53:35;;;;;;;2.37;2.00;;;26.60;49.50;;;;;;5068074;28;20622;-71
2023/07/14 11:56:23;;;;;;;1.83;1.73;;;26.60;50.50;;;;;;5067660;28;20652;-72
2023/07/14 11:59:13;;;;;;;2.20;2.00;;;26.70;50.60;;;;;;5059677;28;20610;-71
2023/07/14 12:01:45;;;;;;;2.37;1.80;;;27.20;51.50;;;;;;5059552;28;20672;-72
2023/07/14 12:04:32;;;;;;;2.00;1.57;;;27.60;50.90;;;;;;5067980;28;20734;-72
2023/07/14 12:07:22;;;;;;;1.67;1.57;;;27.80;51.00;;;;;;5060758;28;20994;-72
2023/07/14 12:10:14;;;;;;;1.40;1.30;;;28.10;49.50;;;;;;5062871;28;20737;-71
2023/07/14 12:12:43;;;;;;;1.70;1.60;;;28.40;47.60;;;;;;5067497;28;20644;-71
2023/07/14 12:15:46;;;;;;;1.80;1.70;;;28.50;47.80;;;;;;5067610;28;20674;-72
2023/07/14 12:18:28;;;;;;;1.10;1.10;;;28.90;47.80;;;;;;5060881;28;20700;-71
2023/07/14 12:21:22;;;;;;;1.47;1.37;;;29.10;47.10;;;;;;5067183;28;21035;-72
2023/07/14 12:23:52;;;;;;;1.70;1.50;;;29.70;48.80;;;;;;5067444;28;20621;-72
2023/07/14 12:26:29;;;;;;;1.60;1.50;;;30.70;47.20;;;;;;5067101;28;20649;-72
2023/07/14 12:28:56;;;;;;;1.80;1.70;;;31.50;46.10;;;;;;5067105;28;20617;-72
2023/07/14 12:31:23;;;;;;;2.30;2.20;;;32.30;45.30;;;;;;5067508;28;20669;-72
2023/07/14 12:33:50;;;;;;;2.03;1.93;;;32.20;43.10;;;;;;5067730;28;20621;-72
2023/07/14 12:36:18;;;;;;;2.97;1.63;;;32.20;43.10;;;;;;5067500;28;20748;-72
2023/07/14 12:38:48;;;;;;;2.23;1.80;;;32.80;42.10;;;;;;5064365;28;20633;-72
2023/07/14 12:41:16;;;;;;;1.97;1.80;;;32.30;41.10;;;;;;5067214;28;20644;-72
2023/07/14 12:43:45;;;;;;;1.57;1.47;;;32.10;41.20;;;;;;5067536;28;20690;-72
2023/07/14 12:46:18;;;;;;;1.47;1.37;;;32.50;41.90;;;;;;5067687;28;20659;-72
2023/07/14 12:48:46;;;;;;;2.47;2.10;;;33.40;41.30;;;;;;5067262;28;20724;-72
2023/07/14 12:51:21;;;;;;;1.47;1.30;;;33.40;39.40;;;;;;5067195;28;20676;-72
2023/07/14 12:53:58;;;;;;;1.60;1.50;;;33.00;40.40;;;;;;5060345;28;20698;-72
2023/07/14 12:56:25;;;;;;;1.50;1.40;;;33.00;39.90;;;;;;5067270;28;20653;-72
2023/07/14 12:58:54;;;;;;;1.67;1.57;;;33.50;42.20;;;;;;5068259;28;20614;-72
2023/07/14 13:01:21;;;;;;;1.33;1.23;;;33.90;39.80;;;;;;5063601;28;20640;-72
2023/07/14 13:03:48;;;;;;;1.53;1.40;;;34.70;37.20;;;;;;5071040;28;20631;-72
2023/07/14 13:06:16;;;;;;;1.83;1.73;;;35.00;37.90;;;;;;5071404;28;20650;-72